sensor_id;sensor_type;location;lat;lon;timestamp;P1;durP1;ratioP1;P2;durP2;ratioP2
21593;SDS011;10959;51.328;7.322;2023-04-09T00:02:11;45.77;;;38.00;;
21593;SDS011;10959;51.328;7.322;2023-04-09T00:04:39;47.00;;;39.50;;
21593;SDS011;10959;51.328;7.322;2023-04-09T00:07:05;57.70;;;45.30;;
21593;SDS011;10959;51.328;7.322;2023-04-09T00:09:31;52.80;;;45.30;;
21593;SDS011;10959;51.328;7.322;2023-04-09T00:11:58;53.60;;;45.20;;
21593;SDS011;10959;51.328;7.322;2023-04-09T00:14:26;60.37;;;48.07;;
21593;SDS011;10959;51.328;7.322;2023-04-09T00:16:52;49.13;;;41.23;;
21593;SDS011;10959;51.328;7.322;2023-04-09T00:19:19;45.57;;;37.43;;
21593;SDS011;10959;51.328;7.322;2023-04-09T00:21:47;45.37;;;37.77;;
21593;SDS011;10959;51.328;7.322;2023-04-09T00:24:13;50.07;;;41.73;;
21593;SDS011;10959;51.328;7.322;2023-04-09T00:26:40;59.63;;;46.83;;
21593;SDS011;10959;51.328;7.322;2023-04-09T00:29:06;53.40;;;41.97;;
21593;SDS011;10959;51.328;7.322;2023-04-09T00:31:32;55.53;;;46.87;;
21593;SDS011;10959;51.328;7.322;2023-04-09T00:33:59;60.30;;;47.13;;
21593;SDS011;10959;51.328;7.322;2023-04-09T00:36:25;62.43;;;47.87;;
21593;SDS011;10959;51.328;7.322;2023-04-09T00:38:53;59.20;;;46.50;;
21593;SDS011;10959;51.328;7.322;2023-04-09T00:41:20;56.83;;;44.17;;
21593;SDS011;10959;51.328;7.322;2023-04-09T00:43:46;50.60;;;40.47;;
21593;SDS011;10959;51.328;7.322;2023-04-09T00:46:13;49.13;;;38.67;;
21593;SDS011;10959;51.328;7.322;2023-04-09T00:48:40;48.57;;;37.40;;
21593;SDS011;10959;51.328;7.322;2023-04-09T00:51:06;48.63;;;37.83;;
21593;SDS011;10959;51.328;7.322;2023-04-09T00:53:33;47.93;;;38.10;;
21593;SDS011;10959;51.328;7.322;2023-04-09T00:56:01;43.20;;;34.93;;
21593;SDS011;10959;51.328;7.322;2023-04-09T00:58:29;43.40;;;36.17;;
21593;SDS011;10959;51.328;7.322;2023-04-09T01:00:55;37.67;;;32.53;;
21593;SDS011;10959;51.328;7.322;2023-04-09T01:03:22;39.83;;;32.67;;
21593;SDS011;10959;51.328;7.322;2023-04-09T01:05:50;38.73;;;31.57;;
21593;SDS011;10959;51.328;7.322;2023-04-09T01:08:25;38.43;;;31.40;;
21593;SDS011;10959;51.328;7.322;2023-04-09T01:11:01;36.67;;;30.27;;
21593;SDS011;10959;51.328;7.322;2023-04-09T01:13:34;39.23;;;30.87;;
21593;SDS011;10959;51.328;7.322;2023-04-09T01:16:07;52.63;;;36.40;;
21593;SDS011;10959;51.328;7.322;2023-04-09T01:18:38;54.50;;;36.37;;
21593;SDS011;10959;51.328;7.322;2023-04-09T01:21:10;52.47;;;36.23;;
21593;SDS011;10959;51.328;7.322;2023-04-09T01:23:42;54.43;;;36.87;;
21593;SDS011;10959;51.328;7.322;2023-04-09T01:26:17;58.93;;;38.50;;
21593;SDS011;10959;51.328;7.322;2023-04-09T01:28:53;62.57;;;39.90;;
21593;SDS011;10959;51.328;7.322;2023-04-09T01:31:24;62.13;;;39.93;;
21593;SDS011;10959;51.328;7.322;2023-04-09T01:33:53;73.17;;;45.80;;
21593;SDS011;10959;51.328;7.322;2023-04-09T01:36:20;60.20;;;40.17;;
21593;SDS011;10959;51.328;7.322;2023-04-09T01:38:47;61.20;;;39.40;;
21593;SDS011;10959;51.328;7.322;2023-04-09T01:41:16;55.30;;;38.00;;
21593;SDS011;10959;51.328;7.322;2023-04-09T01:43:45;56.77;;;37.70;;
21593;SDS011;10959;51.328;7.322;2023-04-09T01:46:14;40.67;;;31.23;;
21593;SDS011;10959;51.328;7.322;2023-04-09T01:48:42;43.50;;;28.90;;
21593;SDS011;10959;51.328;7.322;2023-04-09T01:51:10;43.73;;;30.23;;
21593;SDS011;10959;51.328;7.322;2023-04-09T01:53:38;63.87;;;31.77;;
21593;SDS011;10959;51.328;7.322;2023-04-09T01:56:05;49.13;;;30.57;;
21593;SDS011;10959;51.328;7.322;2023-04-09T01:58:31;46.23;;;31.17;;
21593;SDS011;10959;51.328;7.322;2023-04-09T02:01:00;51.10;;;32.00;;
21593;SDS011;10959;51.328;7.322;2023-04-09T02:03:33;43.00;;;30.60;;
21593;SDS011;10959;51.328;7.322;2023-04-09T02:06:04;49.13;;;32.23;;
21593;SDS011;10959;51.328;7.322;2023-04-09T02:08:34;57.27;;;30.50;;
21593;SDS011;10959;51.328;7.322;2023-04-09T02:11:02;56.70;;;30.47;;
21593;SDS011;10959;51.328;7.322;2023-04-09T02:13:31;199.70;;;45.57;;
21593;SDS011;10959;51.328;7.322;2023-04-09T02:15:58;105.30;;;33.63;;
21593;SDS011;10959;51.328;7.322;2023-04-09T02:18:27;108.53;;;34.27;;
21593;SDS011;10959;51.328;7.322;2023-04-09T02:20:56;195.53;;;37.00;;
21593;SDS011;10959;51.328;7.322;2023-04-09T02:23:23;50.17;;;25.97;;
21593;SDS011;10959;51.328;7.322;2023-04-09T02:25:50;31.17;;;23.10;;
21593;SDS011;10959;51.328;7.322;2023-04-09T02:28:17;28.80;;;21.63;;
21593;SDS011;10959;51.328;7.322;2023-04-09T02:30:44;24.27;;;20.57;;
21593;SDS011;10959;51.328;7.322;2023-04-09T02:33:10;25.87;;;19.30;;
21593;SDS011;10959;51.328;7.322;2023-04-09T02:35:37;50.73;;;23.60;;
21593;SDS011;10959;51.328;7.322;2023-04-09T02:38:04;23.17;;;18.80;;
21593;SDS011;10959;51.328;7.322;2023-04-09T02:40:32;21.17;;;17.70;;
21593;SDS011;10959;51.328;7.322;2023-04-09T02:42:58;21.73;;;17.57;;
21593;SDS011;10959;51.328;7.322;2023-04-09T02:45:25;20.03;;;17.53;;
21593;SDS011;10959;51.328;7.322;2023-04-09T02:47:51;22.53;;;18.13;;
21593;SDS011;10959;51.328;7.322;2023-04-09T02:50:18;19.33;;;16.00;;
21593;SDS011;10959;51.328;7.322;2023-04-09T02:52:44;19.80;;;17.47;;
21593;SDS011;10959;51.328;7.322;2023-04-09T02:55:13;18.90;;;16.53;;
21593;SDS011;10959;51.328;7.322;2023-04-09T02:57:39;18.90;;;16.03;;
21593;SDS011;10959;51.328;7.322;2023-04-09T03:00:06;20.60;;;16.87;;
21593;SDS011;10959;51.328;7.322;2023-04-09T03:02:34;17.67;;;15.77;;
21593;SDS011;10959;51.328;7.322;2023-04-09T03:05:00;20.00;;;16.87;;
21593;SDS011;10959;51.328;7.322;2023-04-09T03:07:27;26.60;;;16.13;;
21593;SDS011;10959;51.328;7.322;2023-04-09T03:09:53;18.53;;;15.13;;
21593;SDS011;10959;51.328;7.322;2023-04-09T03:12:21;25.33;;;17.33;;
21593;SDS011;10959;51.328;7.322;2023-04-09T03:14:47;29.60;;;20.77;;
21593;SDS011;10959;51.328;7.322;2023-04-09T03:17:14;24.67;;;17.60;;
21593;SDS011;10959;51.328;7.322;2023-04-09T03:19:40;17.97;;;15.23;;
21593;SDS011;10959;51.328;7.322;2023-04-09T03:22:07;17.83;;;15.30;;
21593;SDS011;10959;51.328;7.322;2023-04-09T03:24:33;16.97;;;15.13;;
21593;SDS011;10959;51.328;7.322;2023-04-09T03:27:00;16.83;;;14.90;;
21593;SDS011;10959;51.328;7.322;2023-04-09T03:29:27;16.70;;;14.93;;
21593;SDS011;10959;51.328;7.322;2023-04-09T03:31:54;16.93;;;15.13;;
21593;SDS011;10959;51.328;7.322;2023-04-09T03:34:20;19.80;;;17.00;;
21593;SDS011;10959;51.328;7.322;2023-04-09T03:36:48;21.93;;;19.23;;
21593;SDS011;10959;51.328;7.322;2023-04-09T03:39:14;21.97;;;18.13;;
21593;SDS011;10959;51.328;7.322;2023-04-09T03:41:41;18.70;;;16.37;;
21593;SDS011;10959;51.328;7.322;2023-04-09T03:44:07;16.00;;;14.40;;
21593;SDS011;10959;51.328;7.322;2023-04-09T03:46:35;15.47;;;13.87;;
21593;SDS011;10959;51.328;7.322;2023-04-09T03:49:02;16.60;;;14.83;;
21593;SDS011;10959;51.328;7.322;2023-04-09T03:51:28;16.33;;;14.63;;
21593;SDS011;10959;51.328;7.322;2023-04-09T03:53:55;16.43;;;14.50;;
21593;SDS011;10959;51.328;7.322;2023-04-09T03:56:22;15.53;;;13.93;;
21593;SDS011;10959;51.328;7.322;2023-04-09T03:58:48;15.50;;;13.93;;
21593;SDS011;10959;51.328;7.322;2023-04-09T04:01:15;17.53;;;14.57;;
21593;SDS011;10959;51.328;7.322;2023-04-09T04:03:43;17.30;;;15.50;;
21593;SDS011;10959;51.328;7.322;2023-04-09T04:06:09;15.57;;;13.67;;
21593;SDS011;10959;51.328;7.322;2023-04-09T04:08:35;16.50;;;14.77;;
21593;SDS011;10959;51.328;7.322;2023-04-09T04:11:02;17.23;;;15.40;;
21593;SDS011;10959;51.328;7.322;2023-04-09T04:13:29;15.93;;;14.23;;
21593;SDS011;10959;51.328;7.322;2023-04-09T04:15:56;17.90;;;15.27;;
21593;SDS011;10959;51.328;7.322;2023-04-09T04:18:22;18.37;;;15.63;;
21593;SDS011;10959;51.328;7.322;2023-04-09T04:20:50;16.30;;;14.60;;
21593;SDS011;10959;51.328;7.322;2023-04-09T04:23:16;20.47;;;16.53;;
21593;SDS011;10959;51.328;7.322;2023-04-09T04:25:43;18.77;;;15.73;;
21593;SDS011;10959;51.328;7.322;2023-04-09T04:28:09;17.57;;;15.50;;
21593;SDS011;10959;51.328;7.322;2023-04-09T04:30:36;18.57;;;15.67;;
21593;SDS011;10959;51.328;7.322;2023-04-09T04:33:02;15.10;;;13.60;;
21593;SDS011;10959;51.328;7.322;2023-04-09T04:35:28;16.17;;;14.47;;
21593;SDS011;10959;51.328;7.322;2023-04-09T04:37:56;16.70;;;14.80;;
21593;SDS011;10959;51.328;7.322;2023-04-09T04:40:23;16.27;;;14.53;;
21593;SDS011;10959;51.328;7.322;2023-04-09T04:42:49;20.23;;;16.50;;
21593;SDS011;10959;51.328;7.322;2023-04-09T04:45:16;19.27;;;15.97;;
21593;SDS011;10959;51.328;7.322;2023-04-09T04:47:42;16.73;;;13.87;;
21593;SDS011;10959;51.328;7.322;2023-04-09T04:50:09;16.10;;;13.53;;
21593;SDS011;10959;51.328;7.322;2023-04-09T04:52:35;18.73;;;14.20;;
21593;SDS011;10959;51.328;7.322;2023-04-09T04:55:04;17.77;;;15.13;;
21593;SDS011;10959;51.328;7.322;2023-04-09T04:57:31;18.50;;;15.63;;
21593;SDS011;10959;51.328;7.322;2023-04-09T04:59:57;16.63;;;14.87;;
21593;SDS011;10959;51.328;7.322;2023-04-09T05:02:24;16.63;;;14.60;;
21593;SDS011;10959;51.328;7.322;2023-04-09T05:04:50;17.30;;;14.40;;
21593;SDS011;10959;51.328;7.322;2023-04-09T05:07:17;16.20;;;14.47;;
21593;SDS011;10959;51.328;7.322;2023-04-09T05:09:43;17.93;;;15.13;;
21593;SDS011;10959;51.328;7.322;2023-04-09T05:12:11;16.27;;;14.17;;
21593;SDS011;10959;51.328;7.322;2023-04-09T05:14:39;15.87;;;14.23;;
21593;SDS011;10959;51.328;7.322;2023-04-09T05:17:05;17.10;;;14.23;;
21593;SDS011;10959;51.328;7.322;2023-04-09T05:19:32;15.80;;;13.60;;
21593;SDS011;10959;51.328;7.322;2023-04-09T05:21:58;15.57;;;13.63;;
21593;SDS011;10959;51.328;7.322;2023-04-09T05:24:24;15.73;;;13.73;;
21593;SDS011;10959;51.328;7.322;2023-04-09T05:26:51;16.33;;;13.57;;
21593;SDS011;10959;51.328;7.322;2023-04-09T05:29:18;16.30;;;14.20;;
21593;SDS011;10959;51.328;7.322;2023-04-09T05:31:45;16.03;;;14.17;;
21593;SDS011;10959;51.328;7.322;2023-04-09T05:34:11;18.13;;;15.90;;
21593;SDS011;10959;51.328;7.322;2023-04-09T05:36:38;18.20;;;15.37;;
21593;SDS011;10959;51.328;7.322;2023-04-09T05:39:04;17.47;;;14.33;;
21593;SDS011;10959;51.328;7.322;2023-04-09T05:41:31;17.20;;;15.40;;
21593;SDS011;10959;51.328;7.322;2023-04-09T05:43:57;20.20;;;16.80;;
21593;SDS011;10959;51.328;7.322;2023-04-09T05:46:25;17.90;;;16.00;;
21593;SDS011;10959;51.328;7.322;2023-04-09T05:48:52;16.27;;;14.50;;
21593;SDS011;10959;51.328;7.322;2023-04-09T05:51:19;16.97;;;14.63;;
21593;SDS011;10959;51.328;7.322;2023-04-09T05:53:45;18.03;;;16.13;;
21593;SDS011;10959;51.328;7.322;2023-04-09T05:56:12;16.70;;;14.33;;
21593;SDS011;10959;51.328;7.322;2023-04-09T05:58:39;16.00;;;14.30;;
21593;SDS011;10959;51.328;7.322;2023-04-09T06:01:06;14.87;;;13.20;;
21593;SDS011;10959;51.328;7.322;2023-04-09T06:03:34;16.17;;;13.67;;
21593;SDS011;10959;51.328;7.322;2023-04-09T06:06:00;14.80;;;12.50;;
21593;SDS011;10959;51.328;7.322;2023-04-09T06:08:26;15.97;;;14.13;;
21593;SDS011;10959;51.328;7.322;2023-04-09T06:10:53;15.03;;;13.40;;
21593;SDS011;10959;51.328;7.322;2023-04-09T06:13:19;16.23;;;13.43;;
21593;SDS011;10959;51.328;7.322;2023-04-09T06:15:46;14.87;;;13.27;;
21593;SDS011;10959;51.328;7.322;2023-04-09T06:18:13;15.17;;;13.57;;
21593;SDS011;10959;51.328;7.322;2023-04-09T06:20:40;15.87;;;14.13;;
21593;SDS011;10959;51.328;7.322;2023-04-09T06:23:07;16.17;;;13.63;;
21593;SDS011;10959;51.328;7.322;2023-04-09T06:25:34;15.13;;;13.47;;
21593;SDS011;10959;51.328;7.322;2023-04-09T06:28:00;17.30;;;15.53;;
21593;SDS011;10959;51.328;7.322;2023-04-09T06:30:27;15.47;;;13.13;;
21593;SDS011;10959;51.328;7.322;2023-04-09T06:32:55;14.50;;;13.00;;
21593;SDS011;10959;51.328;7.322;2023-04-09T06:35:22;15.40;;;13.30;;
21593;SDS011;10959;51.328;7.322;2023-04-09T06:37:50;14.07;;;12.67;;
21593;SDS011;10959;51.328;7.322;2023-04-09T06:40:16;16.40;;;13.70;;
21593;SDS011;10959;51.328;7.322;2023-04-09T06:42:43;14.07;;;12.60;;
21593;SDS011;10959;51.328;7.322;2023-04-09T06:45:09;17.73;;;14.57;;
21593;SDS011;10959;51.328;7.322;2023-04-09T06:47:36;14.97;;;13.40;;
21593;SDS011;10959;51.328;7.322;2023-04-09T06:50:03;16.43;;;13.80;;
21593;SDS011;10959;51.328;7.322;2023-04-09T06:52:30;15.10;;;12.83;;
21593;SDS011;10959;51.328;7.322;2023-04-09T06:54:58;14.23;;;12.73;;
21593;SDS011;10959;51.328;7.322;2023-04-09T06:57:24;14.73;;;13.20;;
21593;SDS011;10959;51.328;7.322;2023-04-09T06:59:51;16.40;;;13.70;;
21593;SDS011;10959;51.328;7.322;2023-04-09T07:02:17;16.63;;;14.67;;
21593;SDS011;10959;51.328;7.322;2023-04-09T07:04:44;15.07;;;13.10;;
21593;SDS011;10959;51.328;7.322;2023-04-09T07:07:11;16.37;;;14.07;;
21593;SDS011;10959;51.328;7.322;2023-04-09T07:09:38;15.37;;;13.17;;
21593;SDS011;10959;51.328;7.322;2023-04-09T07:12:05;14.83;;;11.70;;
21593;SDS011;10959;51.328;7.322;2023-04-09T07:14:32;15.57;;;13.30;;
21593;SDS011;10959;51.328;7.322;2023-04-09T07:16:58;16.40;;;13.30;;
21593;SDS011;10959;51.328;7.322;2023-04-09T07:19:25;14.40;;;12.57;;
21593;SDS011;10959;51.328;7.322;2023-04-09T07:21:51;14.67;;;12.33;;
21593;SDS011;10959;51.328;7.322;2023-04-09T07:24:18;13.93;;;12.43;;
21593;SDS011;10959;51.328;7.322;2023-04-09T07:26:45;14.17;;;12.40;;
21593;SDS011;10959;51.328;7.322;2023-04-09T07:29:13;13.17;;;11.43;;
21593;SDS011;10959;51.328;7.322;2023-04-09T07:31:39;13.30;;;11.90;;
21593;SDS011;10959;51.328;7.322;2023-04-09T07:34:06;12.60;;;11.30;;
21593;SDS011;10959;51.328;7.322;2023-04-09T07:36:32;13.97;;;12.10;;
21593;SDS011;10959;51.328;7.322;2023-04-09T07:38:59;12.93;;;11.57;;
21593;SDS011;10959;51.328;7.322;2023-04-09T07:41:25;12.33;;;10.70;;
21593;SDS011;10959;51.328;7.322;2023-04-09T07:43:52;13.17;;;11.00;;
21593;SDS011;10959;51.328;7.322;2023-04-09T07:46:20;11.70;;;10.50;;
21593;SDS011;10959;51.328;7.322;2023-04-09T07:48:46;13.87;;;11.53;;
21593;SDS011;10959;51.328;7.322;2023-04-09T07:51:13;13.13;;;11.27;;
21593;SDS011;10959;51.328;7.322;2023-04-09T07:53:40;12.90;;;11.53;;
21593;SDS011;10959;51.328;7.322;2023-04-09T07:56:07;13.17;;;10.90;;
21593;SDS011;10959;51.328;7.322;2023-04-09T07:58:33;13.73;;;11.70;;
21593;SDS011;10959;51.328;7.322;2023-04-09T08:01:00;13.50;;;12.10;;
21593;SDS011;10959;51.328;7.322;2023-04-09T08:03:28;12.77;;;11.10;;
21593;SDS011;10959;51.328;7.322;2023-04-09T08:05:54;12.73;;;11.40;;
21593;SDS011;10959;51.328;7.322;2023-04-09T08:08:20;14.37;;;12.17;;
21593;SDS011;10959;51.328;7.322;2023-04-09T08:10:47;12.63;;;11.03;;
21593;SDS011;10959;51.328;7.322;2023-04-09T08:13:13;11.90;;;10.47;;
21593;SDS011;10959;51.328;7.322;2023-04-09T08:15:40;14.50;;;12.07;;
21593;SDS011;10959;51.328;7.322;2023-04-09T08:18:06;14.67;;;11.50;;
21593;SDS011;10959;51.328;7.322;2023-04-09T08:20:34;11.90;;;10.57;;
21593;SDS011;10959;51.328;7.322;2023-04-09T08:23:01;11.67;;;10.47;;
21593;SDS011;10959;51.328;7.322;2023-04-09T08:25:27;11.83;;;10.73;;
21593;SDS011;10959;51.328;7.322;2023-04-09T08:27:53;10.83;;;9.73;;
21593;SDS011;10959;51.328;7.322;2023-04-09T08:30:20;10.07;;;9.07;;
21593;SDS011;10959;51.328;7.322;2023-04-09T08:32:47;10.53;;;9.43;;
21593;SDS011;10959;51.328;7.322;2023-04-09T08:35:14;10.70;;;9.60;;
21593;SDS011;10959;51.328;7.322;2023-04-09T08:37:42;10.40;;;9.30;;
21593;SDS011;10959;51.328;7.322;2023-04-09T08:40:09;9.63;;;8.40;;
21593;SDS011;10959;51.328;7.322;2023-04-09T08:42:37;10.37;;;9.00;;
21593;SDS011;10959;51.328;7.322;2023-04-09T08:45:09;8.07;;;7.27;;
21593;SDS011;10959;51.328;7.322;2023-04-09T08:47:36;9.30;;;8.40;;
21593;SDS011;10959;51.328;7.322;2023-04-09T08:50:06;8.13;;;7.30;;
21593;SDS011;10959;51.328;7.322;2023-04-09T08:52:33;9.47;;;8.00;;
21593;SDS011;10959;51.328;7.322;2023-04-09T08:55:03;8.17;;;7.37;;
21593;SDS011;10959;51.328;7.322;2023-04-09T08:57:31;8.67;;;7.83;;
21593;SDS011;10959;51.328;7.322;2023-04-09T09:00:02;8.10;;;7.23;;
21593;SDS011;10959;51.328;7.322;2023-04-09T09:02:29;7.17;;;6.47;;
21593;SDS011;10959;51.328;7.322;2023-04-09T09:04:56;7.10;;;6.40;;
21593;SDS011;10959;51.328;7.322;2023-04-09T09:07:24;7.63;;;6.83;;
21593;SDS011;10959;51.328;7.322;2023-04-09T09:09:53;7.73;;;6.93;;
21593;SDS011;10959;51.328;7.322;2023-04-09T09:12:30;7.27;;;6.57;;
21593;SDS011;10959;51.328;7.322;2023-04-09T09:15:01;6.10;;;5.50;;
21593;SDS011;10959;51.328;7.322;2023-04-09T09:17:27;7.80;;;6.07;;
21593;SDS011;10959;51.328;7.322;2023-04-09T09:19:54;6.83;;;6.00;;
21593;SDS011;10959;51.328;7.322;2023-04-09T09:22:21;7.10;;;6.40;;
21593;SDS011;10959;51.328;7.322;2023-04-09T09:24:47;6.90;;;6.23;;
21593;SDS011;10959;51.328;7.322;2023-04-09T09:30:00;6.37;;;5.60;;
21593;SDS011;10959;51.328;7.322;2023-04-09T09:32:27;6.40;;;5.80;;
21593;SDS011;10959;51.328;7.322;2023-04-09T09:34:57;6.83;;;5.77;;
21593;SDS011;10959;51.328;7.322;2023-04-09T09:37:26;6.70;;;5.97;;
21593;SDS011;10959;51.328;7.322;2023-04-09T09:39:53;6.30;;;5.70;;
21593;SDS011;10959;51.328;7.322;2023-04-09T09:42:20;6.20;;;5.60;;
21593;SDS011;10959;51.328;7.322;2023-04-09T09:44:48;6.10;;;5.50;;
21593;SDS011;10959;51.328;7.322;2023-04-09T09:47:15;8.23;;;6.90;;
21593;SDS011;10959;51.328;7.322;2023-04-09T09:49:43;6.73;;;6.13;;
21593;SDS011;10959;51.328;7.322;2023-04-09T09:52:10;5.90;;;5.27;;
21593;SDS011;10959;51.328;7.322;2023-04-09T09:54:37;6.77;;;6.10;;
21593;SDS011;10959;51.328;7.322;2023-04-09T09:57:06;6.20;;;5.33;;
21593;SDS011;10959;51.328;7.322;2023-04-09T09:59:36;6.47;;;5.87;;
21593;SDS011;10959;51.328;7.322;2023-04-09T10:02:07;5.93;;;5.33;;
21593;SDS011;10959;51.328;7.322;2023-04-09T10:04:40;6.53;;;5.90;;
21593;SDS011;10959;51.328;7.322;2023-04-09T10:07:07;6.53;;;5.87;;
21593;SDS011;10959;51.328;7.322;2023-04-09T10:09:34;7.30;;;6.60;;
21593;SDS011;10959;51.328;7.322;2023-04-09T10:12:02;9.60;;;8.70;;
21593;SDS011;10959;51.328;7.322;2023-04-09T10:14:31;7.17;;;6.47;;
21593;SDS011;10959;51.328;7.322;2023-04-09T10:16:59;7.37;;;6.67;;
21593;SDS011;10959;51.328;7.322;2023-04-09T10:19:29;7.13;;;6.43;;
21593;SDS011;10959;51.328;7.322;2023-04-09T10:21:57;7.43;;;6.73;;
21593;SDS011;10959;51.328;7.322;2023-04-09T10:24:29;6.67;;;6.07;;
21593;SDS011;10959;51.328;7.322;2023-04-09T10:27:04;7.07;;;6.37;;
21593;SDS011;10959;51.328;7.322;2023-04-09T10:29:34;6.70;;;6.10;;
21593;SDS011;10959;51.328;7.322;2023-04-09T10:32:08;7.30;;;6.60;;
21593;SDS011;10959;51.328;7.322;2023-04-09T10:34:37;6.13;;;5.53;;
21593;SDS011;10959;51.328;7.322;2023-04-09T10:37:06;6.97;;;6.23;;
21593;SDS011;10959;51.328;7.322;2023-04-09T10:39:33;7.03;;;6.33;;
21593;SDS011;10959;51.328;7.322;2023-04-09T10:42:06;7.77;;;7.03;;
21593;SDS011;10959;51.328;7.322;2023-04-09T10:44:34;7.67;;;6.97;;
21593;SDS011;10959;51.328;7.322;2023-04-09T10:47:05;7.30;;;6.20;;
21593;SDS011;10959;51.328;7.322;2023-04-09T10:49:34;6.70;;;6.00;;
21593;SDS011;10959;51.328;7.322;2023-04-09T10:52:04;7.70;;;6.97;;
21593;SDS011;10959;51.328;7.322;2023-04-09T10:54:38;6.83;;;6.20;;
21593;SDS011;10959;51.328;7.322;2023-04-09T10:57:10;7.60;;;6.90;;
21593;SDS011;10959;51.328;7.322;2023-04-09T10:59:39;6.90;;;6.27;;
21593;SDS011;10959;51.328;7.322;2023-04-09T11:02:07;6.93;;;6.20;;
21593;SDS011;10959;51.328;7.322;2023-04-09T11:04:40;7.13;;;6.43;;
21593;SDS011;10959;51.328;7.322;2023-04-09T11:07:21;6.53;;;5.87;;
21593;SDS011;10959;51.328;7.322;2023-04-09T11:09:49;7.33;;;6.47;;
21593;SDS011;10959;51.328;7.322;2023-04-09T11:12:15;7.43;;;5.97;;
21593;SDS011;10959;51.328;7.322;2023-04-09T11:14:42;7.23;;;6.53;;
21593;SDS011;10959;51.328;7.322;2023-04-09T11:17:08;6.90;;;6.20;;
21593;SDS011;10959;51.328;7.322;2023-04-09T11:19:34;7.20;;;6.50;;
21593;SDS011;10959;51.328;7.322;2023-04-09T11:22:03;6.93;;;6.27;;
21593;SDS011;10959;51.328;7.322;2023-04-09T11:24:38;6.90;;;6.30;;
21593;SDS011;10959;51.328;7.322;2023-04-09T11:27:05;7.40;;;6.40;;
21593;SDS011;10959;51.328;7.322;2023-04-09T11:29:33;7.13;;;6.47;;
21593;SDS011;10959;51.328;7.322;2023-04-09T11:31:59;6.30;;;5.67;;
21593;SDS011;10959;51.328;7.322;2023-04-09T11:34:26;9.00;;;6.53;;
21593;SDS011;10959;51.328;7.322;2023-04-09T11:36:52;6.30;;;5.70;;
21593;SDS011;10959;51.328;7.322;2023-04-09T11:39:22;7.47;;;6.77;;
21593;SDS011;10959;51.328;7.322;2023-04-09T11:41:48;7.87;;;6.27;;
21593;SDS011;10959;51.328;7.322;2023-04-09T11:44:15;7.30;;;6.60;;
21593;SDS011;10959;51.328;7.322;2023-04-09T11:46:41;7.60;;;6.90;;
21593;SDS011;10959;51.328;7.322;2023-04-09T11:49:08;6.37;;;5.77;;
21593;SDS011;10959;51.328;7.322;2023-04-09T11:51:35;7.07;;;5.67;;
21593;SDS011;10959;51.328;7.322;2023-04-09T11:54:03;7.27;;;6.37;;
21593;SDS011;10959;51.328;7.322;2023-04-09T11:56:31;6.27;;;5.67;;
21593;SDS011;10959;51.328;7.322;2023-04-09T11:59:00;6.53;;;5.93;;
21593;SDS011;10959;51.328;7.322;2023-04-09T12:01:29;7.07;;;6.37;;
21593;SDS011;10959;51.328;7.322;2023-04-09T12:03:56;6.97;;;6.33;;
21593;SDS011;10959;51.328;7.322;2023-04-09T12:06:23;6.60;;;6.00;;
21593;SDS011;10959;51.328;7.322;2023-04-09T12:08:51;5.73;;;5.23;;
21593;SDS011;10959;51.328;7.322;2023-04-09T12:11:19;6.87;;;5.80;;
21593;SDS011;10959;51.328;7.322;2023-04-09T12:13:47;6.33;;;5.60;;
21593;SDS011;10959;51.328;7.322;2023-04-09T12:16:13;6.80;;;6.10;;
21593;SDS011;10959;51.328;7.322;2023-04-09T12:18:44;6.50;;;5.90;;
21593;SDS011;10959;51.328;7.322;2023-04-09T12:21:14;5.80;;;5.30;;
21593;SDS011;10959;51.328;7.322;2023-04-09T12:23:41;6.07;;;5.47;;
21593;SDS011;10959;51.328;7.322;2023-04-09T12:26:07;6.83;;;5.97;;
21593;SDS011;10959;51.328;7.322;2023-04-09T12:28:34;6.83;;;6.13;;
21593;SDS011;10959;51.328;7.322;2023-04-09T12:31:02;7.27;;;6.63;;
21593;SDS011;10959;51.328;7.322;2023-04-09T12:33:28;7.67;;;6.93;;
21593;SDS011;10959;51.328;7.322;2023-04-09T12:35:56;7.13;;;6.53;;
21593;SDS011;10959;51.328;7.322;2023-04-09T12:38:22;6.60;;;6.00;;
21593;SDS011;10959;51.328;7.322;2023-04-09T12:40:49;6.77;;;6.17;;
21593;SDS011;10959;51.328;7.322;2023-04-09T12:43:15;6.90;;;6.20;;
21593;SDS011;10959;51.328;7.322;2023-04-09T12:45:42;6.60;;;6.00;;
21593;SDS011;10959;51.328;7.322;2023-04-09T12:48:09;6.50;;;5.90;;
21593;SDS011;10959;51.328;7.322;2023-04-09T12:50:36;5.77;;;5.17;;
21593;SDS011;10959;51.328;7.322;2023-04-09T12:53:02;6.30;;;5.70;;
21593;SDS011;10959;51.328;7.322;2023-04-09T12:55:29;6.40;;;5.80;;
21593;SDS011;10959;51.328;7.322;2023-04-09T12:57:55;6.27;;;5.60;;
21593;SDS011;10959;51.328;7.322;2023-04-09T13:00:22;6.73;;;6.03;;
21593;SDS011;10959;51.328;7.322;2023-04-09T13:02:48;6.17;;;4.97;;
21593;SDS011;10959;51.328;7.322;2023-04-09T13:05:17;5.57;;;5.07;;
21593;SDS011;10959;51.328;7.322;2023-04-09T13:07:44;5.87;;;5.27;;
21593;SDS011;10959;51.328;7.322;2023-04-09T13:10:10;5.83;;;5.23;;
21593;SDS011;10959;51.328;7.322;2023-04-09T13:12:37;6.23;;;5.63;;
21593;SDS011;10959;51.328;7.322;2023-04-09T13:15:04;6.07;;;5.47;;
21593;SDS011;10959;51.328;7.322;2023-04-09T13:17:31;5.73;;;5.13;;
21593;SDS011;10959;51.328;7.322;2023-04-09T13:19:57;5.87;;;5.37;;
21593;SDS011;10959;51.328;7.322;2023-04-09T13:22:25;5.17;;;4.73;;
21593;SDS011;10959;51.328;7.322;2023-04-09T13:24:51;5.80;;;5.20;;
21593;SDS011;10959;51.328;7.322;2023-04-09T13:27:18;5.80;;;5.30;;
21593;SDS011;10959;51.328;7.322;2023-04-09T13:29:44;5.90;;;5.30;;
21593;SDS011;10959;51.328;7.322;2023-04-09T13:32:11;6.30;;;5.70;;
21593;SDS011;10959;51.328;7.322;2023-04-09T13:34:37;5.97;;;5.40;;
21593;SDS011;10959;51.328;7.322;2023-04-09T13:37:04;5.33;;;4.83;;
21593;SDS011;10959;51.328;7.322;2023-04-09T13:39:32;6.23;;;5.63;;
21593;SDS011;10959;51.328;7.322;2023-04-09T13:41:59;4.77;;;4.33;;
21593;SDS011;10959;51.328;7.322;2023-04-09T13:44:25;5.43;;;4.93;;
21593;SDS011;10959;51.328;7.322;2023-04-09T13:46:53;5.97;;;5.37;;
21593;SDS011;10959;51.328;7.322;2023-04-09T13:49:19;5.60;;;5.10;;
21593;SDS011;10959;51.328;7.322;2023-04-09T13:51:46;5.40;;;4.90;;
21593;SDS011;10959;51.328;7.322;2023-04-09T13:54:13;5.00;;;4.50;;
21593;SDS011;10959;51.328;7.322;2023-04-09T13:56:41;5.40;;;4.83;;
21593;SDS011;10959;51.328;7.322;2023-04-09T13:59:08;5.37;;;4.87;;
21593;SDS011;10959;51.328;7.322;2023-04-09T14:01:35;5.23;;;4.60;;
21593;SDS011;10959;51.328;7.322;2023-04-09T14:04:01;5.67;;;4.53;;
21593;SDS011;10959;51.328;7.322;2023-04-09T14:06:28;4.87;;;4.23;;
21593;SDS011;10959;51.328;7.322;2023-04-09T14:08:55;4.57;;;4.17;;
21593;SDS011;10959;51.328;7.322;2023-04-09T14:11:21;4.77;;;4.23;;
21593;SDS011;10959;51.328;7.322;2023-04-09T14:13:50;4.23;;;3.83;;
21593;SDS011;10959;51.328;7.322;2023-04-09T14:16:17;5.07;;;4.57;;
21593;SDS011;10959;51.328;7.322;2023-04-09T14:18:44;5.33;;;4.37;;
21593;SDS011;10959;51.328;7.322;2023-04-09T14:21:10;5.37;;;4.50;;
21593;SDS011;10959;51.328;7.322;2023-04-09T14:23:37;4.70;;;4.30;;
21593;SDS011;10959;51.328;7.322;2023-04-09T14:26:04;4.57;;;4.17;;
21593;SDS011;10959;51.328;7.322;2023-04-09T14:28:31;4.40;;;3.87;;
21593;SDS011;10959;51.328;7.322;2023-04-09T14:30:59;4.83;;;4.43;;
21593;SDS011;10959;51.328;7.322;2023-04-09T14:33:25;4.50;;;4.10;;
21593;SDS011;10959;51.328;7.322;2023-04-09T14:35:52;5.17;;;4.67;;